createdAt,value
2023-05-13T00:00:06.941Z,0
2023-05-13T00:04:02.280Z,0
2023-05-13T00:08:02.307Z,0
2023-05-13T00:12:02.437Z,0
2023-05-13T00:16:01.676Z,0
2023-05-13T00:20:01.900Z,0
2023-05-13T00:24:02.086Z,0
2023-05-13T00:28:02.289Z,0
2023-05-13T00:32:01.897Z,0
2023-05-13T00:36:01.796Z,0
2023-05-13T00:40:02.104Z,0
2023-05-13T00:44:02.124Z,0
2023-05-13T00:48:02.350Z,0
2023-05-13T00:52:02.356Z,0
2023-05-13T00:56:01.470Z,0
2023-05-13T01:00:04.874Z,0
2023-05-13T01:04:02.310Z,0
2023-05-13T01:08:02.398Z,0
2023-05-13T01:12:01.684Z,0
2023-05-13T01:16:01.929Z,0
2023-05-13T01:20:02.470Z,0
2023-05-13T01:24:01.640Z,0
2023-05-13T01:28:01.747Z,0
2023-05-13T01:32:02.029Z,0
2023-05-13T01:36:02.180Z,0
2023-05-13T01:40:05.825Z,0
2023-05-13T01:44:01.642Z,0
2023-05-13T01:48:01.888Z,0
2023-05-13T01:52:02.163Z,0
2023-05-13T01:56:02.252Z,0
2023-05-13T02:00:06.608Z,0
2023-05-13T02:04:01.915Z,0
2023-05-13T02:08:02.314Z,0
2023-05-13T02:12:02.478Z,0
2023-05-13T02:16:01.699Z,0
2023-05-13T02:20:02.088Z,0
2023-05-13T02:24:02.337Z,0
2023-05-13T02:28:01.570Z,0
2023-05-13T02:32:01.696Z,0
2023-05-13T02:36:02.118Z,0
2023-05-13T02:40:02.504Z,0
2023-05-13T02:44:02.341Z,0
2023-05-13T02:48:01.816Z,0
2023-05-13T02:52:01.877Z,0
2023-05-13T02:56:02.225Z,0
2023-05-13T03:00:05.365Z,0
2023-05-13T03:04:01.560Z,0
2023-05-13T03:08:01.906Z,0
2023-05-13T03:12:02.246Z,0
2023-05-13T03:16:02.480Z,0
2023-05-13T03:20:02.671Z,0
2023-05-13T03:24:01.764Z,0
2023-05-13T03:28:01.942Z,0
2023-05-13T03:32:02.289Z,0
2023-05-13T03:36:01.586Z,0
2023-05-13T03:40:01.962Z,0
2023-05-13T03:44:02.138Z,0
2023-05-13T03:48:02.424Z,0
2023-05-13T03:52:02.455Z,0
2023-05-13T03:56:01.583Z,0
2023-05-13T04:00:04.588Z,0
2023-05-13T04:04:01.953Z,0
2023-05-13T04:08:02.150Z,0
2023-05-13T04:12:02.360Z,0
2023-05-13T04:16:02.265Z,0
2023-05-13T04:20:02.570Z,0
2023-05-13T04:24:01.657Z,0
2023-05-13T04:28:01.986Z,0
2023-05-13T04:32:02.010Z,0
2023-05-13T04:36:02.282Z,0
2023-05-13T04:40:01.945Z,0
2023-05-13T04:44:01.912Z,0
2023-05-13T04:48:02.295Z,0
2023-05-13T04:52:02.464Z,0
2023-05-13T04:56:01.745Z,0
2023-05-13T05:00:05.149Z,0
2023-05-13T05:04:01.538Z,0
2023-05-13T05:08:01.723Z,0
2023-05-13T05:12:01.866Z,0
2023-05-13T05:16:02.188Z,0
2023-05-13T05:20:02.514Z,0
2023-05-13T05:24:01.729Z,0
2023-05-13T05:28:01.841Z,0
2023-05-13T05:32:02.165Z,0
2023-05-13T05:36:02.411Z,0
2023-05-13T05:40:01.676Z,0
2023-05-13T05:44:01.782Z,0
2023-05-13T05:48:02.079Z,0
2023-05-13T05:52:02.045Z,0
2023-05-13T05:56:02.153Z,0
2023-05-13T06:00:04.798Z,0
2023-05-13T06:04:02.258Z,0
2023-05-13T06:08:02.541Z,0
2023-05-13T06:12:01.620Z,0
2023-05-13T06:16:01.810Z,0
2023-05-13T06:20:02.169Z,0
2023-05-13T06:24:02.120Z,0
2023-05-13T06:28:03.129Z,0
2023-05-13T06:32:02.164Z,0
2023-05-13T06:36:01.993Z,0
2023-05-13T06:40:02.210Z,0
2023-05-13T06:44:01.907Z,0
2023-05-13T06:48:02.105Z,0
2023-05-13T06:52:02.139Z,0
2023-05-13T06:56:02.247Z,0
2023-05-13T07:00:05.646Z,0
2023-05-13T07:04:01.912Z,0
2023-05-13T07:08:02.236Z,0
2023-05-13T07:12:02.364Z,0
2023-05-13T07:16:01.768Z,0
2023-05-13T07:20:02.141Z,0
2023-05-13T07:24:02.311Z,0
2023-05-13T07:28:02.448Z,0
2023-05-13T07:32:01.723Z,0
2023-05-13T07:36:01.789Z,0
2023-05-13T07:40:02.063Z,0
2023-05-13T07:44:01.990Z,0
2023-05-13T07:48:01.892Z,0
2023-05-13T07:52:02.004Z,0
2023-05-13T07:56:02.206Z,0
2023-05-13T08:00:06.231Z,0
2023-05-13T08:04:01.915Z,0
2023-05-13T08:08:01.927Z,0
2023-05-13T08:12:02.084Z,0
2023-05-13T08:16:02.316Z,0
2023-05-13T08:20:03.704Z,0
2023-05-13T08:24:02.415Z,0
2023-05-13T08:28:02.390Z,0
2023-05-13T08:32:01.710Z,0
2023-05-13T08:36:01.712Z,0
2023-05-13T08:40:02.135Z,0
2023-05-13T08:44:01.973Z,0
2023-05-13T08:48:02.232Z,0
2023-05-13T08:52:02.359Z,0
2023-05-13T08:56:02.523Z,0
2023-05-13T09:00:04.816Z,0
2023-05-13T09:04:02.192Z,0
2023-05-13T09:08:02.307Z,0
2023-05-13T09:12:01.535Z,0
2023-05-13T09:16:01.584Z,0
2023-05-13T09:20:01.911Z,0
2023-05-13T09:24:01.755Z,0
2023-05-13T09:28:01.827Z,0
2023-05-13T09:32:02.041Z,0
2023-05-13T09:36:02.147Z,0
2023-05-13T09:40:02.618Z,1
2023-05-13T09:44:01.552Z,1
2023-05-13T09:48:01.726Z,13
2023-05-13T09:52:01.849Z,12
2023-05-13T09:56:01.875Z,12
2023-05-13T10:00:10.984Z,12
2023-05-13T10:04:01.981Z,10
2023-05-13T10:12:02.136Z,10
2023-05-13T10:14:01.848Z,10
2023-05-13T10:18:02.154Z,10
2023-05-13T10:22:02.098Z,10
2023-05-13T10:24:01.618Z,13
2023-05-13T10:26:02.183Z,13
2023-05-13T10:28:01.961Z,13
2023-05-13T10:30:03.698Z,11
2023-05-13T10:32:02.019Z,11
2023-05-13T10:34:01.560Z,11
2023-05-13T10:36:02.178Z,13
2023-05-13T10:38:01.789Z,13
2023-05-13T10:40:02.469Z,13
2023-05-13T10:42:01.822Z,13
2023-05-13T10:44:02.469Z,13
2023-05-13T10:46:02.080Z,13
2023-05-13T10:48:01.794Z,13
2023-05-13T10:50:02.436Z,13
2023-05-13T10:52:01.892Z,13
2023-05-13T10:54:02.410Z,12
2023-05-13T10:56:01.814Z,12
2023-05-13T10:58:01.526Z,12
2023-05-13T11:00:08.851Z,10
2023-05-13T11:02:02.144Z,10
2023-05-13T11:04:01.759Z,10
2023-05-13T11:06:02.174Z,13
2023-05-13T11:08:01.697Z,13
2023-05-13T11:10:02.335Z,13
2023-05-13T11:12:01.770Z,10
2023-05-13T11:14:02.271Z,10
2023-05-13T11:16:01.684Z,10
2023-05-13T11:18:02.231Z,12
2023-05-13T11:20:01.749Z,12
2023-05-13T11:22:02.150Z,12
2023-05-13T11:24:01.587Z,11
2023-05-13T11:26:02.235Z,11
2023-05-13T11:28:01.734Z,11
2023-05-13T11:30:02.306Z,13
2023-05-13T11:32:01.864Z,13
2023-05-13T11:34:02.464Z,13
2023-05-13T11:36:01.984Z,12
2023-05-13T11:38:02.464Z,12
2023-05-13T11:40:02.155Z,12
2023-05-13T11:42:02.413Z,14
2023-05-13T11:44:01.992Z,14
2023-05-13T11:46:01.702Z,14
2023-05-13T11:48:02.150Z,14
2023-05-13T11:50:01.750Z,14
2023-05-13T11:52:02.271Z,14
2023-05-13T11:54:02.067Z,15
2023-05-13T11:56:01.660Z,15
2023-05-13T11:58:02.168Z,15
2023-05-13T12:00:05.465Z,12
2023-05-13T12:04:02.180Z,12
2023-05-13T12:06:01.650Z,12
2023-05-13T12:08:02.279Z,12
2023-05-13T12:10:02.045Z,12
2023-05-13T12:12:02.325Z,11
2023-05-13T12:14:01.977Z,11
2023-05-13T12:18:02.070Z,13
2023-05-13T12:20:02.719Z,13
2023-05-13T12:22:04.663Z,13
2023-05-13T12:26:02.178Z,12
2023-05-13T12:28:01.828Z,12
2023-05-13T12:30:02.482Z,12
2023-05-13T12:32:02.047Z,12
2023-05-13T12:34:02.443Z,12
2023-05-13T12:36:01.992Z,12
2023-05-13T12:38:01.742Z,12
2023-05-13T12:40:02.406Z,12
2023-05-13T12:42:01.874Z,12
2023-05-13T12:44:01.686Z,12
2023-05-13T12:46:02.217Z,12
2023-05-13T12:48:01.814Z,13
2023-05-13T12:50:02.658Z,13
2023-05-13T12:52:01.914Z,13
2023-05-13T12:54:01.581Z,10
2023-05-13T12:56:02.086Z,10
2023-05-13T12:58:01.639Z,10
2023-05-13T13:00:09.010Z,12
2023-05-13T13:02:02.037Z,12
2023-05-13T13:04:01.946Z,12
2023-05-13T13:06:02.135Z,13
2023-05-13T13:08:01.803Z,13
2023-05-13T13:10:02.570Z,13
2023-05-13T13:12:02.015Z,12
2023-05-13T13:14:01.673Z,12
2023-05-13T13:16:02.381Z,12
2023-05-13T13:18:01.960Z,12
2023-05-13T13:20:02.476Z,12
2023-05-13T13:22:01.979Z,12
2023-05-13T13:24:02.424Z,12
2023-05-13T13:26:02.056Z,12
2023-05-13T13:28:01.464Z,12
2023-05-13T13:30:02.190Z,12
2023-05-13T13:32:01.787Z,12
2023-05-13T13:34:02.380Z,12
2023-05-13T13:36:01.780Z,13
2023-05-13T13:38:02.475Z,13
2023-05-13T13:40:02.140Z,13
2023-05-13T13:42:01.532Z,12
2023-05-13T13:44:02.118Z,12
2023-05-13T13:46:02.030Z,12
2023-05-13T13:48:02.305Z,9
2023-05-13T13:50:01.947Z,9
2023-05-13T13:52:02.414Z,9
2023-05-13T13:54:02.041Z,12
2023-05-13T13:56:01.691Z,12
2023-05-13T13:58:02.221Z,12
2023-05-13T14:00:04.913Z,14
2023-05-13T14:02:02.521Z,14
2023-05-13T14:04:02.064Z,14
2023-05-13T14:06:01.628Z,13
2023-05-13T14:08:02.392Z,13
2023-05-13T14:10:02.008Z,13
2023-05-13T14:12:01.505Z,11
2023-05-13T14:14:02.158Z,11
2023-05-13T14:16:01.896Z,11
2023-05-13T14:18:02.468Z,12
2023-05-13T14:20:02.277Z,12
2023-05-13T14:22:01.801Z,12
2023-05-13T14:24:01.548Z,12
2023-05-13T14:26:02.062Z,12
2023-05-13T14:28:01.739Z,12
2023-05-13T14:30:02.316Z,15
2023-05-13T14:32:01.724Z,15
2023-05-13T14:34:02.332Z,15
2023-05-13T14:36:01.807Z,14
2023-05-13T14:38:02.374Z,14
2023-05-13T14:40:02.263Z,14
2023-05-13T14:42:01.532Z,13
2023-05-13T14:44:02.214Z,13
2023-05-13T14:46:01.749Z,13
2023-05-13T14:48:02.239Z,12
2023-05-13T14:50:01.977Z,12
2023-05-13T14:52:02.501Z,12
2023-05-13T14:54:02.149Z,14
2023-05-13T14:56:01.882Z,14
2023-05-13T14:58:02.440Z,14
2023-05-13T15:00:05.816Z,13
2023-05-13T15:02:01.684Z,13
2023-05-13T15:04:02.297Z,13
2023-05-13T15:06:01.803Z,12
2023-05-13T15:08:02.259Z,12
2023-05-13T15:10:02.106Z,12
2023-05-13T15:12:02.420Z,17
2023-05-13T15:14:02.016Z,17
2023-05-13T15:16:01.610Z,17
2023-05-13T15:18:02.116Z,12
2023-05-13T15:20:01.737Z,12
2023-05-13T15:22:02.179Z,12
2023-05-13T15:24:01.787Z,12
2023-05-13T15:26:02.421Z,12
2023-05-13T15:28:01.915Z,12
2023-05-13T15:30:01.728Z,14
2023-05-13T15:32:02.297Z,14
2023-05-13T15:34:01.964Z,14
2023-05-13T15:36:02.503Z,13
2023-05-13T15:38:02.097Z,13
2023-05-13T15:40:01.857Z,13
2023-05-13T15:42:02.289Z,11
2023-05-13T15:44:01.899Z,11
2023-05-13T15:46:01.800Z,11
2023-05-13T15:48:02.221Z,14
2023-05-13T15:50:02.003Z,14
2023-05-13T15:52:01.692Z,14
2023-05-13T15:54:02.245Z,15
2023-05-13T15:56:01.945Z,15
2023-05-13T15:58:01.633Z,15
2023-05-13T16:00:05.755Z,12
2023-05-13T16:04:01.519Z,12
2023-05-13T16:06:02.179Z,14
2023-05-13T16:08:01.813Z,14
2023-05-13T16:10:02.570Z,14
2023-05-13T16:12:02.034Z,14
2023-05-13T16:14:01.608Z,14
2023-05-13T16:16:02.459Z,14
2023-05-13T16:18:02.117Z,15
2023-05-13T16:20:02.051Z,15
2023-05-13T16:22:01.713Z,15
2023-05-13T16:24:02.224Z,15
2023-05-13T16:26:01.831Z,15
2023-05-13T16:28:02.307Z,15
2023-05-13T16:30:01.835Z,13
2023-05-13T16:32:02.330Z,13
2023-05-13T16:34:02.089Z,13
2023-05-13T16:36:01.690Z,15
2023-05-13T16:38:02.175Z,15
2023-05-13T16:40:01.829Z,15
2023-05-13T16:42:02.344Z,15
2023-05-13T16:44:01.926Z,15
2023-05-13T16:46:01.623Z,15
2023-05-13T16:48:02.420Z,15
2023-05-13T16:50:02.290Z,15
2023-05-13T16:52:01.712Z,15
2023-05-13T16:54:02.421Z,15
2023-05-13T16:56:02.176Z,15
2023-05-13T16:58:01.748Z,15
2023-05-13T17:00:03.896Z,13
2023-05-13T17:02:02.312Z,13
2023-05-13T17:04:01.804Z,13
2023-05-13T17:06:02.408Z,13
2023-05-13T17:08:02.075Z,13
2023-05-13T17:10:02.037Z,13
2023-05-13T17:12:02.684Z,15
2023-05-13T17:14:02.192Z,15
2023-05-13T17:16:01.950Z,15
2023-05-13T17:18:01.713Z,13
2023-05-13T17:20:02.477Z,13
2023-05-13T17:22:02.200Z,13
2023-05-13T17:24:01.708Z,16
2023-05-13T17:26:02.304Z,16
2023-05-13T17:28:01.960Z,16
2023-05-13T17:30:01.624Z,15
2023-05-13T17:32:02.204Z,15
2023-05-13T17:34:01.885Z,15
2023-05-13T17:36:01.517Z,16
2023-05-13T17:38:01.931Z,16
2023-05-13T17:40:01.709Z,16
2023-05-13T17:42:02.085Z,15
2023-05-13T17:44:01.714Z,15
2023-05-13T17:46:02.402Z,15
2023-05-13T17:48:01.905Z,14
2023-05-13T17:50:01.931Z,14
2023-05-13T17:52:02.379Z,14
2023-05-13T17:54:01.996Z,13
2023-05-13T17:56:01.527Z,13
2023-05-13T17:58:02.305Z,13
2023-05-13T18:00:08.815Z,12
2023-05-13T18:02:02.054Z,12
2023-05-13T18:04:01.607Z,12
2023-05-13T18:06:02.186Z,12
2023-05-13T18:08:01.791Z,12
2023-05-13T18:10:02.467Z,12
2023-05-13T18:12:01.741Z,15
2023-05-13T18:14:01.982Z,15
2023-05-13T18:16:01.608Z,15
2023-05-13T18:18:02.049Z,15
2023-05-13T18:20:01.923Z,15
2023-05-13T18:22:02.506Z,15
2023-05-13T18:24:02.051Z,14
2023-05-13T18:26:01.629Z,14
2023-05-13T18:28:02.248Z,14
2023-05-13T18:30:01.968Z,13
2023-05-13T18:32:02.445Z,13
2023-05-13T18:34:01.991Z,13
2023-05-13T18:36:02.422Z,15
2023-05-13T18:38:01.982Z,15
2023-05-13T18:40:02.012Z,15
2023-05-13T18:42:02.142Z,12
2023-05-13T18:44:01.731Z,12
2023-05-13T18:46:02.363Z,12
2023-05-13T18:48:01.967Z,14
2023-05-13T18:50:01.660Z,14
2023-05-13T18:52:02.337Z,14
2023-05-13T18:54:02.000Z,15
2023-05-13T18:56:01.628Z,15
2023-05-13T18:58:02.195Z,15
2023-05-13T19:00:07.702Z,14
2023-05-13T19:02:01.732Z,14
2023-05-13T19:04:02.253Z,14
2023-05-13T19:06:01.621Z,15
2023-05-13T19:08:02.298Z,15
2023-05-13T19:10:02.055Z,15
2023-05-13T19:14:02.161Z,11
2023-05-13T19:16:01.608Z,11
2023-05-13T19:18:02.387Z,15
2023-05-13T19:20:01.848Z,15
2023-05-13T19:22:02.345Z,15
2023-05-13T19:24:01.869Z,14
2023-05-13T19:26:02.379Z,14
2023-05-13T19:28:01.960Z,14
2023-05-13T19:30:01.810Z,12
2023-05-13T19:32:02.359Z,12
2023-05-13T19:34:01.761Z,12
2023-05-13T19:36:02.280Z,14
2023-05-13T19:38:01.825Z,14
2023-05-13T19:40:02.462Z,14
2023-05-13T19:42:01.887Z,15
2023-05-13T19:44:02.430Z,15
2023-05-13T19:46:01.957Z,15
2023-05-13T19:48:02.511Z,12
2023-05-13T19:52:01.928Z,12
2023-05-13T19:54:02.332Z,17
2023-05-13T19:56:01.939Z,17
2023-05-13T19:58:01.515Z,17
2023-05-13T20:00:02.534Z,12
2023-05-13T20:02:01.944Z,12
2023-05-13T20:04:01.566Z,12
2023-05-13T20:06:01.952Z,12
2023-05-13T20:08:01.650Z,12
2023-05-13T20:10:02.530Z,12
2023-05-13T20:12:02.056Z,11
2023-05-13T20:14:01.561Z,11
2023-05-13T20:16:02.242Z,11
2023-05-13T20:18:01.736Z,15
2023-05-13T20:20:02.413Z,15
2023-05-13T20:22:01.855Z,15
2023-05-13T20:24:02.331Z,15
2023-05-13T20:26:01.959Z,15
2023-05-13T20:28:01.539Z,15
2023-05-13T20:30:02.174Z,12
2023-05-13T20:32:01.574Z,12
2023-05-13T20:34:01.954Z,12
2023-05-13T20:36:02.435Z,11
2023-05-13T20:38:02.037Z,11
2023-05-13T20:40:01.740Z,11
2023-05-13T20:42:02.087Z,14
2023-05-13T20:44:01.600Z,14
2023-05-13T20:46:02.111Z,14
2023-05-13T20:48:01.737Z,15
2023-05-13T20:50:02.477Z,15
2023-05-13T20:52:02.005Z,15
2023-05-13T20:54:02.425Z,15
2023-05-13T20:56:01.962Z,15
2023-05-13T20:58:01.536Z,15
2023-05-13T21:00:04.742Z,17
2023-05-13T21:04:02.311Z,17
2023-05-13T21:06:01.605Z,15
2023-05-13T21:08:02.124Z,15
2023-05-13T21:10:01.762Z,15
2023-05-13T21:12:02.090Z,12
2023-05-13T21:14:01.737Z,12
2023-05-13T21:16:02.333Z,12
2023-05-13T21:18:01.780Z,12
2023-05-13T21:20:02.412Z,12
2023-05-13T21:22:01.945Z,12
2023-05-13T21:24:02.332Z,14
2023-05-13T21:26:01.821Z,14
2023-05-13T21:28:01.500Z,14
2023-05-13T21:30:02.090Z,14
2023-05-13T21:32:02.411Z,14
2023-05-13T21:34:02.032Z,14
2023-05-13T21:36:02.444Z,14
2023-05-13T21:38:11.493Z,14
2023-05-13T21:40:02.619Z,14
2023-05-13T21:42:02.068Z,14
2023-05-13T21:44:01.787Z,14
2023-05-13T21:46:02.218Z,14
2023-05-13T21:48:01.696Z,15
2023-05-13T21:50:02.429Z,15
2023-05-13T21:52:01.648Z,15
2023-05-13T21:54:02.253Z,12
2023-05-13T21:56:01.949Z,12
2023-05-13T21:58:02.426Z,12
2023-05-13T22:00:02.388Z,17
2023-05-13T22:02:02.365Z,17
2023-05-13T22:04:01.852Z,17
2023-05-13T22:06:02.191Z,17
2023-05-13T22:08:01.537Z,17
2023-05-13T22:10:02.357Z,17
2023-05-13T22:12:01.880Z,15
2023-05-13T22:14:02.464Z,15
2023-05-13T22:16:01.951Z,15
2023-05-13T22:18:02.587Z,17
2023-05-13T22:20:02.116Z,17
2023-05-13T22:22:01.491Z,17
2023-05-13T22:24:02.065Z,14
2023-05-13T22:26:01.634Z,14
2023-05-13T22:28:02.178Z,14
2023-05-13T22:30:01.746Z,15
2023-05-13T22:32:02.167Z,15
2023-05-13T22:34:01.675Z,15
2023-05-13T22:36:02.268Z,12
2023-05-13T22:38:01.904Z,12
2023-05-13T22:40:01.700Z,12
2023-05-13T22:42:02.185Z,11
2023-05-13T22:44:01.810Z,11
2023-05-13T22:46:02.401Z,11
2023-05-13T22:48:01.828Z,14
2023-05-13T22:50:02.621Z,14
2023-05-13T22:52:02.151Z,14
2023-05-13T22:54:01.673Z,17
2023-05-13T22:56:02.290Z,17
2023-05-13T22:58:01.877Z,17
2023-05-13T23:00:05.060Z,14
2023-05-13T23:04:02.437Z,14
2023-05-13T23:06:01.907Z,12
2023-05-13T23:08:02.323Z,12
2023-05-13T23:10:02.131Z,12
2023-05-13T23:12:01.680Z,12
2023-05-13T23:14:02.398Z,12
2023-05-13T23:16:01.971Z,12
2023-05-13T23:18:02.424Z,12
2023-05-13T23:20:02.251Z,12
2023-05-13T23:22:01.750Z,12
2023-05-13T23:24:02.298Z,20
2023-05-13T23:26:01.830Z,20
2023-05-13T23:28:02.451Z,20
2023-05-13T23:30:02.209Z,13
2023-05-13T23:32:02.493Z,13
2023-05-13T23:34:02.272Z,13
2023-05-13T23:36:01.951Z,15
2023-05-13T23:38:02.449Z,15
2023-05-13T23:40:02.305Z,15
2023-05-13T23:42:01.817Z,14
2023-05-13T23:44:02.353Z,14
2023-05-13T23:46:01.847Z,14
2023-05-13T23:48:02.439Z,14
2023-05-13T23:50:02.205Z,14
2023-05-13T23:52:01.817Z,14
2023-05-13T23:54:02.427Z,11
2023-05-13T23:56:02.081Z,11
2023-05-13T23:58:01.567Z,11
